Time;durP1;ratioP1;P1;durP2;ratioP2;P2;SDS_P1;SDS_P2;PMS_P1;PMS_P2;Temp;Humidity;BMP_temperature;BMP_pressure;BME280_temperature;BME280_humidity;BME280_pressure;Samples;Min_cycle;Max_cycle;Signal;HPM_P1;HPM_P2
2023/05/10 00:01:46;;;;;;;6.80;4.15;;;14.20;67.20;;;;;;5028176;28;20390;-66
2023/05/10 00:04:12;;;;;;;8.35;4.30;;;14.20;67.40;;;;;;5022388;28;20041;-66
2023/05/10 00:06:37;;;;;;;7.72;4.60;;;14.20;67.50;;;;;;5025423;28;20406;-67
2023/05/10 00:09:03;;;;;;;5.80;4.38;;;14.20;67.60;;;;;;5025508;28;20088;-66
2023/05/10 00:11:29;;;;;;;5.68;3.83;;;14.10;67.80;;;;;;5027676;28;20080;-66
2023/05/10 00:13:55;;;;;;;6.18;4.57;;;14.10;67.90;;;;;;5027560;28;20118;-67
2023/05/10 00:16:20;;;;;;;6.85;3.85;;;14.00;67.90;;;;;;5018254;28;20030;-66
2023/05/10 00:18:46;;;;;;;6.25;4.15;;;14.00;68.10;;;;;;5023265;28;20046;-67
2023/05/10 00:21:12;;;;;;;6.10;4.25;;;14.00;68.30;;;;;;5024578;28;20399;-66
2023/05/10 00:23:37;;;;;;;8.02;4.65;;;13.90;68.30;;;;;;5023241;28;20115;-66
2023/05/10 00:26:03;;;;;;;5.90;4.13;;;13.90;68.40;;;;;;5020760;28;20100;-66
2023/05/10 00:28:29;;;;;;;5.25;2.88;;;13.90;68.60;;;;;;5006904;28;20084;-66
2023/05/10 00:30:55;;;;;;;6.28;4.00;;;13.80;68.70;;;;;;5024143;28;20037;-66
2023/05/10 00:33:20;;;;;;;6.45;4.30;;;13.80;68.80;;;;;;5025991;28;20045;-66
2023/05/10 00:35:46;;;;;;;7.38;4.65;;;13.80;68.90;;;;;;5026999;28;20034;-67
2023/05/10 00:38:12;;;;;;;7.32;4.88;;;13.70;69.00;;;;;;5008850;28;20072;-67
2023/05/10 00:40:37;;;;;;;9.43;4.85;;;13.70;69.10;;;;;;5021201;28;20490;-68
2023/05/10 00:43:03;;;;;;;6.95;4.80;;;13.70;69.40;;;;;;5024454;28;20497;-67
2023/05/10 00:45:32;;;;;;;7.65;4.50;;;13.60;69.40;;;;;;5027494;28;20147;-67
2023/05/10 00:47:59;;;;;;;5.30;4.20;;;13.60;69.60;;;;;;5022321;28;20092;-67
2023/05/10 00:50:26;;;;;;;5.50;4.15;;;13.60;69.80;;;;;;5024420;28;20484;-67
2023/05/10 00:52:52;;;;;;;6.53;4.55;;;13.60;69.80;;;;;;5025358;28;20145;-72
2023/05/10 00:55:18;;;;;;;5.70;4.70;;;13.50;69.80;;;;;;5007018;28;20044;-73
2023/05/10 00:57:44;;;;;;;6.80;5.75;;;13.50;70.00;;;;;;5027480;28;20061;-74
2023/05/10 01:00:11;;;;;;;5.78;4.70;;;13.50;70.10;;;;;;5020474;28;20072;-73
2023/05/10 01:02:36;;;;;;;6.93;5.03;;;13.40;70.20;;;;;;5014150;28;20087;-72
2023/05/10 01:05:06;;;;;;;9.30;5.85;;;13.40;70.20;;;;;;5025264;28;20486;-74
2023/05/10 01:07:31;;;;;;;6.68;4.72;;;13.40;70.40;;;;;;5015225;28;20057;-74
2023/05/10 01:09:57;;;;;;;5.45;4.45;;;13.40;70.60;;;;;;5024045;28;20126;-74
2023/05/10 01:12:23;;;;;;;6.85;4.90;;;13.30;70.50;;;;;;5011053;28;20037;-72
2023/05/10 01:14:49;;;;;;;9.07;4.75;;;13.20;70.70;;;;;;5017623;28;20073;-72
2023/05/10 01:17:16;;;;;;;6.60;5.07;;;13.20;70.80;;;;;;5025684;28;20034;-74
2023/05/10 01:19:41;;;;;;;7.43;4.65;;;13.20;70.90;;;;;;5026565;28;20108;-74
2023/05/10 01:22:10;;;;;;;6.07;4.30;;;13.20;71.00;;;;;;5027497;28;20054;-75
2023/05/10 01:25:11;;;;;;;5.35;4.20;;;13.10;71.20;;;;;;5023185;28;20101;-74
2023/05/10 01:28:07;;;;;;;7.07;4.88;;;13.10;71.50;;;;;;4989591;28;20033;-75
2023/05/10 01:31:06;;;;;;;6.07;4.38;;;13.10;71.40;;;;;;5025486;28;20572;-73
2023/05/10 01:33:41;;;;;;;9.13;5.22;;;13.00;71.50;;;;;;5021428;28;20033;-67
2023/05/10 01:36:09;;;;;;;8.13;5.78;;;13.00;71.40;;;;;;5019004;28;20093;-66
2023/05/10 01:38:50;;;;;;;7.63;5.13;;;12.90;71.40;;;;;;5022895;28;20523;-66
2023/05/10 01:41:31;;;;;;;6.18;4.20;;;12.90;71.80;;;;;;5006263;28;20038;-66
2023/05/10 01:44:19;;;;;;;16.92;5.40;;;12.90;71.90;;;;;;5006901;28;20076;-67
2023/05/10 01:46:47;;;;;;;5.88;4.57;;;12.90;72.10;;;;;;5029306;28;20038;-67
2023/05/10 01:49:22;;;;;;;5.18;4.20;;;12.90;72.20;;;;;;5031232;28;20131;-67
2023/05/10 01:51:54;;;;;;;6.10;4.50;;;12.80;72.30;;;;;;5023731;28;20487;-68
2023/05/10 01:54:22;;;;;;;9.63;4.90;;;12.80;72.40;;;;;;5021537;28;20042;-67
2023/05/10 01:56:54;;;;;;;6.93;4.63;;;12.70;72.50;;;;;;5030790;28;20045;-68
2023/05/10 01:59:22;;;;;;;5.63;4.20;;;12.70;72.70;;;;;;5015532;28;20045;-67
2023/05/10 02:01:49;;;;;;;7.30;4.38;;;12.70;72.80;;;;;;5006810;28;20073;-67
2023/05/10 02:04:17;;;;;;;5.18;4.05;;;12.70;72.90;;;;;;5026971;28;20049;-67
2023/05/10 02:06:44;;;;;;;6.03;4.45;;;12.70;73.20;;;;;;5028834;28;20083;-67
2023/05/10 02:09:11;;;;;;;6.38;4.85;;;12.70;73.20;;;;;;5030213;28;20502;-67
2023/05/10 02:11:42;;;;;;;7.03;4.50;;;12.60;73.20;;;;;;5023146;28;20068;-67
2023/05/10 02:14:10;;;;;;;6.32;4.53;;;12.60;73.40;;;;;;4997106;28;20559;-67
2023/05/10 02:16:37;;;;;;;7.47;4.78;;;12.60;73.50;;;;;;5022406;28;20124;-67
2023/05/10 02:19:04;;;;;;;6.07;4.65;;;12.60;73.60;;;;;;5031151;28;20128;-67
2023/05/10 02:21:31;;;;;;;5.75;4.10;;;12.60;73.70;;;;;;5016928;28;20080;-67
2023/05/10 02:23:58;;;;;;;5.63;4.28;;;12.50;73.80;;;;;;5021444;28;20049;-67
2023/05/10 02:26:25;;;;;;;5.75;4.55;;;12.50;73.90;;;;;;5028510;28;20068;-67
2023/05/10 02:28:52;;;;;;;6.65;4.72;;;12.50;74.20;;;;;;5024145;28;20467;-69
2023/05/10 02:31:19;;;;;;;9.35;4.70;;;12.50;74.20;;;;;;5023333;28;20038;-68
2023/05/10 02:33:46;;;;;;;7.57;4.80;;;12.40;74.20;;;;;;5024611;28;20033;-68
2023/05/10 02:36:13;;;;;;;7.57;5.13;;;12.40;74.40;;;;;;5010393;28;20383;-68
2023/05/10 02:38:40;;;;;;;6.07;4.32;;;12.40;74.60;;;;;;5025634;28;20070;-68
2023/05/10 02:41:10;;;;;;;7.13;4.90;;;12.40;74.60;;;;;;5030622;28;20046;-68
2023/05/10 02:43:37;;;;;;;7.88;4.75;;;12.30;74.70;;;;;;5026749;28;20049;-68
2023/05/10 02:46:03;;;;;;;6.10;4.95;;;12.30;74.70;;;;;;5029171;28;20073;-68
2023/05/10 02:48:29;;;;;;;6.38;4.68;;;12.30;74.90;;;;;;5028390;28;20037;-68
2023/05/10 02:51:00;;;;;;;7.68;4.53;;;12.30;74.90;;;;;;5023760;28;20048;-68
2023/05/10 02:53:33;;;;;;;6.63;5.10;;;12.30;75.00;;;;;;5017639;28;20104;-68
2023/05/10 02:56:01;;;;;;;6.60;4.35;;;12.20;75.20;;;;;;5007737;28;20038;-68
2023/05/10 02:58:27;;;;;;;6.35;3.97;;;12.30;75.20;;;;;;5030050;28;20372;-68
2023/05/10 03:00:52;;;;;;;5.50;4.30;;;12.20;75.20;;;;;;5018247;28;20132;-68
2023/05/10 03:03:19;;;;;;;7.80;4.57;;;12.20;75.20;;;;;;5026788;28;20061;-68
2023/05/10 03:05:45;;;;;;;7.03;4.70;;;12.20;75.40;;;;;;5020338;28;20049;-67
2023/05/10 03:08:11;;;;;;;6.28;4.40;;;12.20;75.40;;;;;;5028957;28;20532;-68
2023/05/10 03:10:47;;;;;;;6.75;4.53;;;12.10;75.50;;;;;;5018971;28;20521;-67
2023/05/10 03:13:15;;;;;;;8.73;5.22;;;12.10;75.60;;;;;;5029624;28;20363;-68
2023/05/10 03:16:06;;;;;;;6.18;4.20;;;12.00;75.60;;;;;;5027456;28;20767;-68
2023/05/10 03:18:58;;;;;;;6.18;4.28;;;12.00;75.80;;;;;;5019890;28;20034;-68
2023/05/10 03:21:28;;;;;;;6.32;4.70;;;12.00;75.70;;;;;;5013150;28;20037;-66
2023/05/10 03:24:07;;;;;;;6.05;4.45;;;12.00;75.90;;;;;;5027744;28;20037;-67
2023/05/10 03:26:33;;;;;;;7.93;4.13;;;12.00;76.10;;;;;;5024775;28;20099;-66
2023/05/10 03:29:00;;;;;;;5.30;4.13;;;12.00;76.00;;;;;;5014491;28;20404;-66
2023/05/10 03:31:25;;;;;;;5.57;4.13;;;12.00;76.10;;;;;;5021991;28;20410;-65
2023/05/10 03:33:52;;;;;;;6.40;4.30;;;11.90;76.20;;;;;;5019292;28;20038;-66
2023/05/10 03:36:18;;;;;;;5.65;4.30;;;11.90;76.30;;;;;;5020600;28;20462;-67
2023/05/10 03:38:44;;;;;;;6.82;4.65;;;11.90;76.40;;;;;;5019958;28;20049;-66
2023/05/10 03:41:10;;;;;;;6.40;4.30;;;12.00;76.50;;;;;;5023001;28;20620;-66
2023/05/10 03:43:36;;;;;;;6.47;4.28;;;11.90;76.50;;;;;;5002292;28;20038;-66
2023/05/10 03:46:05;;;;;;;7.00;4.45;;;11.90;76.50;;;;;;5009058;28;20133;-66
2023/05/10 03:48:32;;;;;;;6.32;4.32;;;11.90;76.70;;;;;;5018812;28;20061;-66
2023/05/10 03:50:57;;;;;;;7.38;4.72;;;11.90;76.70;;;;;;5018115;28;20061;-66
2023/05/10 03:53:23;;;;;;;6.68;4.18;;;12.00;76.80;;;;;;5022510;28;20033;-66
2023/05/10 03:55:49;;;;;;;6.75;4.20;;;11.90;76.80;;;;;;5001016;28;20071;-66
2023/05/10 03:58:15;;;;;;;6.72;4.03;;;11.90;76.80;;;;;;5029390;28;20033;-66
2023/05/10 04:00:43;;;;;;;6.78;4.40;;;12.00;77.00;;;;;;5021388;28;20080;-66
2023/05/10 04:03:09;;;;;;;6.30;4.38;;;12.00;77.20;;;;;;5025802;28;20046;-66
2023/05/10 04:05:35;;;;;;;5.78;4.30;;;12.00;77.10;;;;;;5021271;28;20037;-67
2023/05/10 04:08:02;;;;;;;7.90;4.85;;;12.00;77.10;;;;;;5010393;28;20037;-67
2023/05/10 04:10:27;;;;;;;6.72;4.40;;;12.00;77.20;;;;;;5025211;28;20038;-68
2023/05/10 04:12:53;;;;;;;5.47;4.07;;;12.00;77.30;;;;;;5028567;28;20164;-67
2023/05/10 04:15:19;;;;;;;4.85;3.47;;;12.00;77.30;;;;;;5024643;28;20044;-66
2023/05/10 04:17:44;;;;;;;6.72;4.75;;;12.00;77.50;;;;;;5026418;28;20034;-67
2023/05/10 04:20:11;;;;;;;6.45;3.70;;;12.00;77.50;;;;;;5010669;28;20088;-68
2023/05/10 04:22:37;;;;;;;5.53;3.60;;;12.00;77.40;;;;;;5019368;28;20394;-67
2023/05/10 04:25:03;;;;;;;6.47;4.03;;;12.00;77.40;;;;;;5017445;28;20037;-67
2023/05/10 04:27:28;;;;;;;6.43;4.50;;;12.10;77.50;;;;;;5010862;28;20124;-67
2023/05/10 04:29:54;;;;;;;5.82;4.20;;;12.10;77.50;;;;;;5027118;28;20056;-68
2023/05/10 04:32:20;;;;;;;5.55;3.53;;;12.10;77.50;;;;;;5027111;28;20401;-68
2023/05/10 04:34:45;;;;;;;7.68;3.97;;;12.10;77.50;;;;;;5005084;28;20045;-68
2023/05/10 04:37:11;;;;;;;6.47;4.00;;;12.20;77.60;;;;;;5010185;28;20042;-69
2023/05/10 04:39:37;;;;;;;6.30;3.58;;;12.20;77.50;;;;;;4994199;28;20100;-67
2023/05/10 04:42:03;;;;;;;5.90;3.58;;;12.20;77.50;;;;;;5027401;28;20063;-70
2023/05/10 04:44:29;;;;;;;7.47;4.13;;;12.30;77.60;;;;;;5028142;28;20113;-70
2023/05/10 04:46:55;;;;;;;7.20;4.25;;;12.30;78.00;;;;;;5014772;28;20091;-68
2023/05/10 04:49:21;;;;;;;6.63;4.43;;;12.40;77.50;;;;;;5014532;28;20939;-67
2023/05/10 04:51:47;;;;;;;8.10;4.20;;;12.40;77.50;;;;;;5020088;28;20033;-68
2023/05/10 04:54:12;;;;;;;5.57;3.75;;;12.40;77.40;;;;;;5026607;28;20096;-67
2023/05/10 04:56:38;;;;;;;5.05;3.72;;;12.50;77.40;;;;;;5022746;28;20069;-67
2023/05/10 04:59:03;;;;;;;4.90;3.67;;;12.50;77.40;;;;;;5015726;28;20045;-67
2023/05/10 05:01:29;;;;;;;5.32;3.63;;;12.50;77.20;;;;;;5024521;28;20301;-64
2023/05/10 05:03:55;;;;;;;7.32;3.95;;;12.50;77.20;;;;;;5010395;28;20037;-64
2023/05/10 05:06:20;;;;;;;6.40;4.15;;;12.60;77.20;;;;;;5024445;28;20180;-68
2023/05/10 05:08:46;;;;;;;7.03;4.15;;;12.60;77.10;;;;;;5024438;28;20041;-63
2023/05/10 05:11:12;;;;;;;6.10;3.63;;;12.70;77.20;;;;;;5025052;28;20045;-64
2023/05/10 05:13:38;;;;;;;7.88;3.50;;;12.70;77.10;;;;;;5016161;28;20495;-62
2023/05/10 05:16:05;;;;;;;9.25;4.05;;;12.80;77.10;;;;;;5020269;28;20115;-65
2023/05/10 05:18:31;;;;;;;5.75;3.78;;;12.90;77.20;;;;;;5015348;28;20069;-65
2023/05/10 05:20:56;;;;;;;9.90;4.05;;;12.90;77.00;;;;;;5022038;28;20146;-63
2023/05/10 05:23:24;;;;;;;5.22;3.50;;;13.00;76.90;;;;;;5017980;28;20122;-65
2023/05/10 05:25:51;;;;;;;5.88;3.53;;;13.00;77.00;;;;;;5013856;28;20100;-65
2023/05/10 05:28:18;;;;;;;28.30;4.03;;;13.10;77.00;;;;;;5029358;28;20441;-65
2023/05/10 05:30:44;;;;;;;6.35;3.85;;;13.20;77.00;;;;;;5024364;28;20090;-65
2023/05/10 05:33:09;;;;;;;7.00;3.72;;;13.20;76.80;;;;;;5019122;28;20068;-65
2023/05/10 05:35:35;;;;;;;9.25;3.45;;;13.30;76.80;;;;;;5025603;28;20121;-65
2023/05/10 05:38:00;;;;;;;5.45;3.50;;;13.30;76.70;;;;;;5019414;28;20041;-65
2023/05/10 05:40:26;;;;;;;4.50;3.22;;;13.40;76.70;;;;;;5023074;28;20044;-65
2023/05/10 05:42:52;;;;;;;5.45;3.20;;;13.50;76.70;;;;;;5012409;28;20038;-65
2023/05/10 05:45:17;;;;;;;5.93;3.65;;;13.50;76.70;;;;;;5018616;28;20094;-65
2023/05/10 05:47:43;;;;;;;8.00;3.50;;;13.70;76.60;;;;;;5019812;28;20064;-65
2023/05/10 05:50:09;;;;;;;4.90;3.03;;;13.70;76.40;;;;;;5024981;28;20396;-65
2023/05/10 05:52:35;;;;;;;5.03;3.38;;;13.80;76.30;;;;;;5024019;28;20048;-64
2023/05/10 05:55:01;;;;;;;6.13;3.65;;;13.80;76.00;;;;;;5021602;28;20046;-66
2023/05/10 05:57:27;;;;;;;3.92;2.85;;;13.90;76.00;;;;;;5022562;28;20383;-65
2023/05/10 05:59:52;;;;;;;8.65;2.90;;;14.00;76.10;;;;;;5028380;28;20065;-66
2023/05/10 06:02:18;;;;;;;4.40;2.67;;;14.10;76.00;;;;;;5023421;28;20064;-66
2023/05/10 06:04:44;;;;;;;5.55;2.53;;;14.20;76.00;;;;;;5023808;28;20124;-66
2023/05/10 06:07:09;;;;;;;5.28;2.47;;;14.20;75.70;;;;;;5021530;28;20036;-66
2023/05/10 06:09:35;;;;;;;5.70;2.80;;;14.30;76.00;;;;;;5025699;28;20038;-67
2023/05/10 06:12:01;;;;;;;4.57;2.70;;;14.40;75.80;;;;;;5008215;28;20136;-64
2023/05/10 06:14:27;;;;;;;6.35;3.10;;;14.50;75.60;;;;;;5020660;28;20067;-64
2023/05/10 06:16:52;;;;;;;5.22;3.13;;;14.50;75.30;;;;;;5023830;28;20041;-65
2023/05/10 06:19:18;;;;;;;5.40;3.05;;;14.60;75.20;;;;;;5028209;28;20056;-67
2023/05/10 06:21:44;;;;;;;6.13;2.88;;;14.70;75.30;;;;;;5019256;28;20033;-67
2023/05/10 06:24:10;;;;;;;3.30;2.47;;;14.70;75.40;;;;;;5024041;28;20038;-67
2023/05/10 06:26:35;;;;;;;5.25;2.70;;;14.80;74.90;;;;;;5038600;28;20087;-67
2023/05/10 06:29:01;;;;;;;4.47;2.33;;;14.90;74.90;;;;;;5020829;28;20580;-67
2023/05/10 06:31:26;;;;;;;4.97;2.50;;;14.90;74.50;;;;;;5046083;28;20444;-68
2023/05/10 06:33:52;;;;;;;8.18;3.00;;;15.00;74.60;;;;;;5046202;28;20036;-68
2023/05/10 06:36:18;;;;;;;3.72;2.58;;;15.10;74.70;;;;;;5033718;28;20094;-68
2023/05/10 06:38:44;;;;;;;6.90;2.55;;;15.20;74.40;;;;;;5046329;28;20044;-68
2023/05/10 06:41:09;;;;;;;4.00;2.22;;;15.20;74.40;;;;;;5048541;28;20040;-68
2023/05/10 06:43:35;;;;;;;4.53;3.13;;;15.30;74.30;;;;;;5045833;28;20047;-65
2023/05/10 06:46:01;;;;;;;4.45;2.83;;;15.30;74.10;;;;;;5053844;28;20036;-67
2023/05/10 06:48:26;;;;;;;5.40;2.50;;;15.40;74.10;;;;;;5026163;28;20179;-62
2023/05/10 06:50:52;;;;;;;4.05;2.97;;;15.50;74.00;;;;;;5052790;28;20037;-67
2023/05/10 06:53:17;;;;;;;5.65;2.25;;;15.50;74.10;;;;;;5046838;28;20075;-68
2023/05/10 06:55:43;;;;;;;7.10;2.97;;;15.60;73.90;;;;;;5048858;28;20029;-67
2023/05/10 06:58:09;;;;;;;4.68;2.30;;;15.60;73.60;;;;;;5039943;28;20060;-67
2023/05/10 07:00:35;;;;;;;4.70;2.35;;;15.80;73.60;;;;;;5044504;28;20112;-68
2023/05/10 07:03:00;;;;;;;4.65;2.55;;;15.80;73.40;;;;;;5041941;28;20033;-68
2023/05/10 07:05:27;;;;;;;4.40;2.80;;;15.90;73.40;;;;;;5045027;28;20043;-64
2023/05/10 07:07:53;;;;;;;3.55;2.08;;;15.90;73.90;;;;;;5029624;28;20055;-67
2023/05/10 07:10:18;;;;;;;5.78;2.70;;;16.00;73.10;;;;;;5043105;28;20033;-67
2023/05/10 07:12:44;;;;;;;3.00;2.03;;;16.00;73.00;;;;;;5050616;28;20349;-67
2023/05/10 07:15:10;;;;;;;3.25;2.28;;;16.10;72.90;;;;;;5057091;28;20040;-67
2023/05/10 07:17:35;;;;;;;3.80;2.22;;;16.20;72.70;;;;;;5046371;28;20480;-65
2023/05/10 07:20:01;;;;;;;7.72;2.85;;;16.20;72.60;;;;;;5049878;28;20044;-66
2023/05/10 07:22:27;;;;;;;4.38;2.35;;;16.20;72.50;;;;;;5048344;28;20048;-67
2023/05/10 07:24:53;;;;;;;4.70;2.58;;;16.30;72.60;;;;;;5045841;28;20037;-67
2023/05/10 07:27:18;;;;;;;4.28;2.47;;;16.30;72.50;;;;;;5044194;28;20033;-67
2023/05/10 07:29:44;;;;;;;6.57;2.42;;;16.40;72.50;;;;;;5043759;28;20509;-67
2023/05/10 07:32:10;;;;;;;3.65;2.28;;;16.50;72.20;;;;;;5048290;28;20044;-67
2023/05/10 07:34:35;;;;;;;4.82;2.58;;;16.50;72.10;;;;;;5044895;28;20040;-67
2023/05/10 07:37:01;;;;;;;6.60;2.83;;;16.60;72.10;;;;;;5045659;28;20668;-67
2023/05/10 07:39:27;;;;;;;2.95;1.80;;;16.70;71.90;;;;;;5043129;28;20103;-68
2023/05/10 07:41:54;;;;;;;4.38;2.20;;;16.70;71.90;;;;;;5051528;28;20041;-67
2023/05/10 07:44:20;;;;;;;4.57;2.03;;;16.80;71.80;;;;;;5049488;28;20037;-66
2023/05/10 07:46:46;;;;;;;3.80;2.13;;;16.90;71.60;;;;;;5048761;28;20055;-67
2023/05/10 07:49:12;;;;;;;3.80;2.55;;;17.00;71.70;;;;;;5044825;28;20079;-67
2023/05/10 07:51:37;;;;;;;2.97;2.05;;;17.00;71.60;;;;;;5031266;28;20041;-68
2023/05/10 07:54:03;;;;;;;4.20;2.63;;;17.10;71.30;;;;;;5028566;28;20076;-67
2023/05/10 07:56:31;;;;;;;4.57;2.33;;;17.10;71.50;;;;;;5037729;28;20033;-67
2023/05/10 07:59:01;;;;;;;3.85;2.25;;;17.20;71.10;;;;;;5045371;28;20056;-67
2023/05/10 08:01:31;;;;;;;3.47;2.08;;;17.20;71.20;;;;;;5039537;28;20493;-68
2023/05/10 08:03:56;;;;;;;5.05;2.08;;;17.30;71.00;;;;;;5051617;28;20379;-68
2023/05/10 08:06:22;;;;;;;3.30;2.20;;;17.40;70.60;;;;;;5047715;28;20040;-68
2023/05/10 08:08:53;;;;;;;3.03;2.28;;;17.40;70.60;;;;;;5048610;28;20119;-68
2023/05/10 08:11:20;;;;;;;5.30;2.80;;;17.50;70.60;;;;;;5049558;28;20056;-68
2023/05/10 08:13:47;;;;;;;4.82;2.03;;;17.60;70.40;;;;;;5047409;28;20514;-68
2023/05/10 08:16:13;;;;;;;3.53;2.30;;;17.70;70.00;;;;;;5035172;28;20103;-68
2023/05/10 08:18:39;;;;;;;3.47;2.28;;;17.70;69.90;;;;;;5048370;28;20033;-68
2023/05/10 08:21:05;;;;;;;6.05;2.53;;;17.80;69.90;;;;;;5024270;28;20044;-68
2023/05/10 08:23:31;;;;;;;3.58;2.17;;;17.80;69.30;;;;;;5046405;28;20041;-69
2023/05/10 08:25:57;;;;;;;4.15;2.33;;;17.90;69.00;;;;;;5046168;28;20040;-68
2023/05/10 08:28:22;;;;;;;3.53;2.30;;;17.90;68.50;;;;;;5046679;28;20072;-68
2023/05/10 08:30:49;;;;;;;3.10;2.20;;;18.00;68.90;;;;;;5035644;28;20045;-68
2023/05/10 08:33:15;;;;;;;4.50;2.10;;;18.10;69.30;;;;;;5047511;28;20043;-68
2023/05/10 08:35:41;;;;;;;7.30;2.10;;;18.10;69.40;;;;;;5046251;28;20037;-68
2023/05/10 08:38:07;;;;;;;3.45;2.03;;;18.20;69.20;;;;;;5047592;28;20037;-67
2023/05/10 08:40:32;;;;;;;3.63;2.20;;;18.30;68.80;;;;;;5026670;28;20052;-67
2023/05/10 08:43:11;;;;;;;3.15;2.00;;;18.40;68.90;;;;;;5047146;28;20044;-67
2023/05/10 08:45:42;;;;;;;5.53;2.33;;;18.40;68.80;;;;;;5026809;28;20040;-68
2023/05/10 08:48:10;;;;;;;4.85;2.58;;;18.50;68.70;;;;;;5044858;28;20138;-67
2023/05/10 08:50:36;;;;;;;6.47;2.20;;;18.60;68.60;;;;;;5043116;28;20498;-68
2023/05/10 08:53:05;;;;;;;9.75;2.60;;;18.70;68.60;;;;;;5050112;28;20036;-67
2023/05/10 08:55:33;;;;;;;4.97;2.05;;;18.70;67.90;;;;;;5050549;28;20064;-68
2023/05/10 08:57:59;;;;;;;6.00;2.05;;;18.70;67.70;;;;;;5050803;28;20052;-68
2023/05/10 09:00:26;;;;;;;3.60;2.17;;;18.80;67.50;;;;;;5049532;28;20767;-68
2023/05/10 09:02:52;;;;;;;7.95;2.05;;;18.90;67.50;;;;;;5050441;28;20044;-67
2023/05/10 09:05:17;;;;;;;4.53;2.80;;;18.90;67.60;;;;;;5040356;28;20045;-67
2023/05/10 09:07:43;;;;;;;5.30;2.45;;;19.00;67.70;;;;;;5034166;28;20048;-68
2023/05/10 09:10:11;;;;;;;4.97;2.00;;;19.10;67.50;;;;;;5048691;28;20063;-66
2023/05/10 09:12:37;;;;;;;3.10;1.95;;;19.10;67.70;;;;;;5049457;28;20036;-67
2023/05/10 09:15:05;;;;;;;8.25;2.53;;;19.20;67.40;;;;;;5030330;28;20394;-67
2023/05/10 09:17:31;;;;;;;4.40;2.38;;;19.30;67.00;;;;;;5049576;28;20111;-66
2023/05/10 09:20:06;;;;;;;8.13;2.08;;;19.30;67.10;;;;;;5050561;28;20140;-68
2023/05/10 09:22:33;;;;;;;7.80;2.10;;;19.40;67.00;;;;;;5050148;28;20033;-67
2023/05/10 09:25:05;;;;;;;6.43;2.60;;;19.50;67.10;;;;;;5048703;28;20048;-67
2023/05/10 09:27:30;;;;;;;4.68;1.77;;;19.50;66.70;;;;;;5048451;28;20041;-66
2023/05/10 09:29:57;;;;;;;4.97;2.30;;;19.60;66.70;;;;;;5041247;28;20118;-66
2023/05/10 09:32:36;;;;;;;3.20;2.10;;;19.70;66.40;;;;;;5040809;28;20120;-66
2023/05/10 09:35:13;;;;;;;18.45;2.80;;;19.70;66.00;;;;;;5045551;28;22452;-67
2023/05/10 09:37:41;;;;;;;3.83;2.03;;;19.80;66.00;;;;;;5047990;28;20138;-66
2023/05/10 09:40:10;;;;;;;6.00;2.67;;;19.80;65.70;;;;;;5049217;28;20045;-67
2023/05/10 09:42:36;;;;;;;4.32;2.00;;;19.90;65.50;;;;;;5051708;28;20546;-66
2023/05/10 09:45:06;;;;;;;5.63;2.22;;;19.90;65.20;;;;;;5051055;28;20067;-67
2023/05/10 09:47:35;;;;;;;5.68;2.70;;;20.00;65.30;;;;;;5050949;28;20119;-66
2023/05/10 09:50:03;;;;;;;6.00;2.20;;;20.10;65.40;;;;;;5043048;28;20041;-67
2023/05/10 09:52:53;;;;;;;4.10;2.17;;;20.10;65.20;;;;;;5050666;28;20033;-67
2023/05/10 09:55:24;;;;;;;4.10;2.33;;;20.20;65.40;;;;;;5054138;28;20049;-66
2023/05/10 09:57:59;;;;;;;3.92;2.30;;;20.30;65.30;;;;;;5065235;28;20072;-67
2023/05/10 10:00:27;;;;;;;3.35;2.30;;;20.30;64.90;;;;;;5059171;28;20077;-66
2023/05/10 10:02:58;;;;;;;4.53;2.20;;;20.40;64.60;;;;;;5064292;28;20064;-66
2023/05/10 10:05:33;;;;;;;3.92;2.20;;;20.40;64.30;;;;;;5063901;28;20064;-66
2023/05/10 10:08:00;;;;;;;4.78;2.00;;;20.40;64.30;;;;;;5041624;28;20033;-66
2023/05/10 10:10:27;;;;;;;3.65;2.25;;;20.50;64.00;;;;;;5048015;28;20389;-67
2023/05/10 10:12:53;;;;;;;4.10;2.65;;;20.50;64.00;;;;;;5046852;28;20044;-66
2023/05/10 10:15:20;;;;;;;3.90;1.70;;;20.50;64.00;;;;;;5046899;28;20545;-67
2023/05/10 10:17:46;;;;;;;2.92;1.98;;;20.60;64.10;;;;;;5034005;28;20513;-67
2023/05/10 10:20:12;;;;;;;4.22;2.17;;;20.60;64.20;;;;;;5049019;28;20273;-67
2023/05/10 10:22:44;;;;;;;3.22;2.33;;;20.70;63.70;;;;;;5048079;28;20037;-66
2023/05/10 10:25:12;;;;;;;4.35;2.50;;;20.80;63.20;;;;;;5049016;28;20044;-67
2023/05/10 10:27:52;;;;;;;8.77;2.50;;;20.80;63.80;;;;;;5047855;28;20037;-67
2023/05/10 10:30:42;;;;;;;9.32;2.28;;;20.90;63.40;;;;;;5047549;28;20375;-67
2023/05/10 10:33:40;;;;;;;6.22;2.35;;;21.00;63.10;;;;;;5046779;28;20149;-67
2023/05/10 10:36:06;;;;;;;5.15;2.47;;;21.00;62.90;;;;;;5051379;28;20120;-67
2023/05/10 10:39:01;;;;;;;5.22;2.50;;;21.10;62.70;;;;;;5047863;28;20064;-67
2023/05/10 10:41:36;;;;;;;5.63;2.58;;;21.10;62.70;;;;;;5042633;28;20037;-67
2023/05/10 10:44:30;;;;;;;4.75;2.33;;;21.10;62.20;;;;;;5037561;28;20037;-67
2023/05/10 10:47:24;;;;;;;6.45;2.55;;;21.20;62.20;;;;;;5049883;28;20045;-67
2023/05/10 10:50:07;;;;;;;4.32;2.00;;;21.20;62.00;;;;;;5047372;28;20044;-67
2023/05/10 10:52:41;;;;;;;3.38;2.17;;;21.30;62.30;;;;;;5027608;28;20044;-67
2023/05/10 10:55:09;;;;;;;5.65;2.10;;;21.30;62.00;;;;;;5041143;28;20033;-67
2023/05/10 10:57:41;;;;;;;4.13;2.35;;;21.40;62.10;;;;;;5048195;28;20075;-67
2023/05/10 11:00:22;;;;;;;9.10;2.40;;;21.40;61.80;;;;;;5045831;28;20061;-67
2023/05/10 11:03:18;;;;;;;4.28;2.17;;;21.40;62.00;;;;;;5040590;28;20041;-67
2023/05/10 11:05:52;;;;;;;4.97;2.63;;;21.50;62.40;;;;;;5049368;28;20040;-67
2023/05/10 11:08:30;;;;;;;3.07;2.20;;;21.40;61.70;;;;;;5045597;28;20037;-66
2023/05/10 11:10:59;;;;;;;3.00;1.98;;;21.60;61.70;;;;;;5043448;28;20294;-66
2023/05/10 11:13:30;;;;;;;3.80;1.90;;;21.60;61.60;;;;;;5048038;28;20036;-66
2023/05/10 11:15:57;;;;;;;2.78;1.80;;;21.70;61.10;;;;;;5028108;28;20235;-66
2023/05/10 11:18:25;;;;;;;4.85;1.95;;;21.70;61.30;;;;;;5027772;28;20036;-67
2023/05/10 11:20:56;;;;;;;5.53;1.92;;;21.70;61.00;;;;;;5045195;28;20044;-68
2023/05/10 11:23:22;;;;;;;4.00;2.40;;;21.80;61.10;;;;;;5047423;28;20051;-67
2023/05/10 11:25:48;;;;;;;7.30;2.15;;;21.80;61.20;;;;;;5045876;28;20482;-66
2023/05/10 11:28:16;;;;;;;9.10;2.80;;;21.90;60.60;;;;;;5046969;28;20524;-66
2023/05/10 11:30:44;;;;;;;6.00;3.05;;;21.90;60.60;;;;;;5044560;28;20525;-67
2023/05/10 11:33:14;;;;;;;8.00;2.17;;;22.00;60.30;;;;;;5052881;28;20077;-67
2023/05/10 11:35:40;;;;;;;2.55;1.67;;;22.00;60.50;;;;;;5029545;28;20076;-66
2023/05/10 11:38:10;;;;;;;3.42;1.98;;;22.10;60.60;;;;;;5046454;28;20061;-66
2023/05/10 11:40:37;;;;;;;5.40;2.13;;;22.20;60.80;;;;;;5046322;28;20048;-67
2023/05/10 11:43:03;;;;;;;6.07;2.10;;;22.30;60.90;;;;;;5049600;28;20064;-65
2023/05/10 11:45:32;;;;;;;2.72;1.63;;;22.30;60.60;;;;;;5042089;28;20039;-66
2023/05/10 11:47:58;;;;;;;10.52;1.98;;;22.30;60.50;;;;;;5045095;28;20368;-66
2023/05/10 11:50:25;;;;;;;5.90;2.80;;;22.40;59.60;;;;;;5045305;28;20517;-68
2023/05/10 11:52:55;;;;;;;3.38;1.98;;;22.40;59.50;;;;;;5045032;28;20095;-66
2023/05/10 11:55:21;;;;;;;17.10;2.70;;;22.40;58.90;;;;;;5042411;28;20055;-66
2023/05/10 11:57:47;;;;;;;6.07;1.98;;;22.40;58.60;;;;;;5040690;28;20037;-65
2023/05/10 12:00:16;;;;;;;15.27;3.45;;;22.50;58.70;;;;;;5026348;28;20045;-67
2023/05/10 12:02:42;;;;;;;3.00;1.90;;;22.50;58.30;;;;;;5044757;28;20040;-66
2023/05/10 12:05:08;;;;;;;8.25;2.85;;;22.50;58.60;;;;;;5042443;28;20505;-67
2023/05/10 12:07:34;;;;;;;79.50;9.35;;;22.60;58.10;;;;;;5037231;28;20089;-65
2023/05/10 12:10:08;;;;;;;10.20;2.90;;;22.60;57.80;;;;;;5043695;28;20037;-68
2023/05/10 12:12:42;;;;;;;15.93;3.30;;;22.60;57.50;;;;;;5044698;28;20135;-67
2023/05/10 12:15:12;;;;;;;8.88;2.15;;;22.60;57.50;;;;;;5044530;28;20083;-68
2023/05/10 12:17:40;;;;;;;6.13;2.22;;;22.60;57.20;;;;;;5042678;28;20033;-68
2023/05/10 12:20:23;;;;;;;4.95;1.95;;;22.70;57.60;;;;;;5043775;28;20095;-68
2023/05/10 12:22:51;;;;;;;7.00;1.98;;;22.70;57.80;;;;;;5040142;28;20041;-68
2023/05/10 12:25:22;;;;;;;5.28;2.30;;;22.80;58.10;;;;;;5043793;28;20047;-70
2023/05/10 12:27:55;;;;;;;6.30;1.90;;;22.90;57.90;;;;;;5033259;28;20094;-68
2023/05/10 12:30:26;;;;;;;5.00;2.08;;;23.00;57.50;;;;;;5039128;28;20052;-67
2023/05/10 12:32:53;;;;;;;4.07;2.08;;;23.00;56.90;;;;;;5028561;28;20045;-68
2023/05/10 12:35:23;;;;;;;5.22;2.40;;;23.10;56.80;;;;;;5043271;28;20033;-69
2023/05/10 12:37:50;;;;;;;4.72;1.75;;;23.10;56.60;;;;;;5044516;28;20119;-68
2023/05/10 12:40:16;;;;;;;12.13;3.20;;;23.20;56.90;;;;;;5044068;28;20422;-67
2023/05/10 12:42:44;;;;;;;9.13;2.38;;;23.20;56.80;;;;;;5045985;28;20033;-67
2023/05/10 12:45:17;;;;;;;5.93;2.20;;;23.30;57.00;;;;;;5046530;28;20045;-67
2023/05/10 12:47:43;;;;;;;6.05;2.30;;;23.40;56.70;;;;;;5036400;28;20091;-66
2023/05/10 12:50:09;;;;;;;4.32;2.42;;;23.50;56.70;;;;;;5046590;28;20425;-66
2023/05/10 12:52:35;;;;;;;3.15;1.95;;;23.50;56.50;;;;;;5046535;28;20057;-66